createdAt,value
2023-02-23T16:36:19.913Z,500.00
2023-02-23T16:40:19.484Z,400.00
2023-02-23T16:44:19.386Z,436.00
2023-02-23T16:48:19.341Z,503.00
2023-02-23T16:52:19.222Z,500.00
2023-02-23T16:56:19.179Z,502.00
2023-02-23T17:00:19.022Z,502.00
2023-02-23T17:04:18.988Z,505.00
2023-02-23T17:08:18.972Z,509.00
2023-02-23T17:12:18.852Z,505.00
2023-02-23T17:16:19.285Z,507.00
2023-02-23T17:20:18.667Z,509.00
2023-02-23T17:24:18.559Z,512.00
2023-02-23T17:28:18.474Z,517.00
2023-02-23T17:32:18.449Z,506.00
2023-02-23T17:36:18.283Z,515.00
2023-02-23T17:40:18.084Z,515.00
2023-02-23T17:44:18.115Z,528.00
2023-02-23T17:48:18.275Z,523.00
2023-02-23T17:52:18.130Z,522.00
2023-02-23T17:56:18.116Z,524.00
2023-02-23T18:00:18.046Z,523.00
2023-02-23T18:04:17.896Z,609.00
2023-02-23T18:08:17.798Z,772.00
2023-02-23T18:12:17.723Z,885.00
2023-02-23T18:16:17.705Z,1025.00
2023-02-23T18:20:17.583Z,1053.00
2023-02-23T18:24:17.490Z,1102.00
2023-02-23T18:28:17.451Z,1182.00
2023-02-23T18:32:17.619Z,1180.00
2023-02-23T18:36:17.289Z,1193.00
2023-02-23T18:40:17.176Z,1224.00
2023-02-23T18:44:18.812Z,1241.00
2023-02-23T18:48:17.153Z,1270.00
2023-02-23T18:52:17.011Z,1290.00
2023-02-23T18:56:17.098Z,1309.00
2023-02-23T19:00:17.254Z,1315.00
2023-02-23T19:04:17.375Z,1337.00
2023-02-23T19:08:17.508Z,1352.00
2023-02-23T19:12:17.628Z,1361.00
2023-02-23T19:16:17.754Z,1373.00
2023-02-23T19:20:17.878Z,1378.00
2023-02-23T19:24:17.956Z,1396.00
2023-02-23T19:28:18.088Z,1414.00
2023-02-23T19:32:18.490Z,1423.00
2023-02-23T19:36:18.385Z,1436.00
2023-02-23T19:40:18.532Z,1433.00
2023-02-23T19:44:18.651Z,1446.00
2023-02-23T19:48:18.807Z,1449.00
2023-02-23T19:52:19.024Z,1452.00
2023-02-23T19:56:19.177Z,1449.00
2023-02-23T20:00:19.348Z,1473.00
2023-02-23T20:04:19.474Z,1477.00
2023-02-23T20:08:19.687Z,1475.00
2023-02-23T20:12:19.800Z,1484.00
2023-02-23T20:16:20.037Z,1471.00
2023-02-23T20:20:20.127Z,1500.00
2023-02-23T20:24:20.067Z,1484.00
2023-02-23T20:28:20.087Z,1506.00
2023-02-23T20:32:19.997Z,1501.00
2023-02-23T20:36:19.861Z,1505.00
2023-02-23T20:40:19.760Z,1491.00
2023-02-23T20:44:19.688Z,1498.00
2023-02-23T20:48:19.615Z,1500.00
2023-02-23T20:52:19.526Z,1490.00
2023-02-23T20:56:19.462Z,1505.00
2023-02-23T21:00:19.357Z,1506.00
2023-02-23T21:04:19.669Z,1509.00
2023-02-23T21:08:19.458Z,1492.00
2023-02-23T21:12:19.420Z,1513.00
2023-02-23T21:16:19.391Z,1504.00
2023-02-23T21:20:20.665Z,1490.00
2023-02-23T21:24:19.320Z,1501.00
2023-02-23T21:28:19.093Z,1502.00
2023-02-23T21:32:19.219Z,1492.00
2023-02-23T21:36:19.036Z,1484.00
2023-02-23T21:40:18.957Z,1496.00
2023-02-23T21:44:18.847Z,1503.00
2023-02-23T21:48:18.779Z,1490.00
2023-02-23T21:52:18.775Z,1485.00
2023-02-23T21:56:18.669Z,1485.00
2023-02-23T22:00:18.564Z,1487.00
2023-02-23T22:04:18.491Z,1490.00
2023-02-23T22:08:18.444Z,1494.00
2023-02-23T22:12:18.381Z,1490.00
2023-02-23T22:16:18.339Z,1497.00
2023-02-23T22:20:18.275Z,1486.00
2023-02-23T22:24:18.246Z,1493.00
2023-02-23T22:28:18.102Z,1491.00
2023-02-23T22:32:18.167Z,1492.00
2023-02-23T22:36:17.957Z,1480.00
2023-02-23T22:40:17.849Z,1487.00
2023-02-23T22:44:17.816Z,1475.00
2023-02-23T22:48:17.707Z,1488.00
2023-02-23T22:52:17.605Z,1483.00
2023-02-23T22:56:17.504Z,1487.00
2023-02-23T23:00:17.632Z,1466.00
2023-02-23T23:04:17.816Z,1473.00
2023-02-23T23:08:17.897Z,1474.00
2023-02-23T23:12:18.051Z,1463.00
2023-02-23T23:16:30.562Z,1464.00
2023-02-23T23:20:19.212Z,1468.00
2023-02-23T23:24:17.983Z,1460.00
2023-02-23T23:28:17.941Z,1449.00
2023-02-23T23:32:18.024Z,1465.00
2023-02-23T23:36:17.948Z,1455.00
2023-02-23T23:40:17.868Z,1447.00
2023-02-23T23:44:17.760Z,1442.00
2023-02-23T23:48:17.840Z,1442.00
2023-02-23T23:52:17.994Z,1435.00
2023-02-23T23:56:17.931Z,1428.00
